YYBK weather

Yarra Bank Heliport
Victoria, Australia

Public forecast

Using degrees Celsius for public forecast. Weather courtesy of forecast.io.

METAR (pilot weather report)

Closest report is Melbourne Essendon Airport, 6.2 nm (11.5 km) NNW. Retrieved 2019/04/21 19:30 UTC (22 minutes ago):

YMEN 211930Z AUTO 21004KT 4700 // SCT010 OVC015 13/12 Q1023

TAF (pilot weather forecast)

Forecast is more than 6 hours old.

Closest forecast is Melbourne International Airport, 10.4 nm (19.4 km) NNW. Retrieved 2019/04/21 12:00 UTC (8 hours ago):

TAF YMML 211112Z 2112/2218 24013KT 9999 -SHRA SCT015 BKN020 FM211600 19010KT 9999 -SHRA SCT010 BKN015 BECMG 2121/2123 24010KT 9999 -SHRA SCT018 BKN025 FM220200 17010KT 9999 BKN030 FM221400 22006KT 9999 SCT025 INTER 2112/2116 5000 SHRA BKN012 TEMPO 2116/2123 5000 SHRA BKN010